Time,TemperatureF,DewpointF,PressureIn,WindDirection,WindDirectionDegrees,WindSpeedMPH,WindSpeedGustMPH,Humidity,HourlyPrecipIn,Conditions,Clouds,dailyrainin,SoftwareType,DateUTC
2013-07-02 00:32:00,68.0,65.0,29.95,WNW,292,0.0,1.0,91,0.02,,,0.06,,2013-07-02 04:32:00,
2013-07-02 00:42:00,68.0,66.0,29.95,NW,306,0.0,0.0,94,0.36,,,0.40,,2013-07-02 04:42:00,
2013-07-02 00:53:00,67.0,65.0,29.95,NW,306,0.0,0.0,94,0.44,,,0.48,,2013-07-02 04:53:00,
2013-07-02 01:01:00,67.0,66.0,29.94,NW,306,0.0,0.0,95,0.53,,,0.57,,2013-07-02 05:01:00,
2013-07-02 01:32:00,66.0,65.0,29.95,NW,306,0.0,0.0,97,0.47,,,0.79,,2013-07-02 05:32:00,
2013-07-02 01:43:00,66.0,65.0,29.95,NW,306,0.0,0.0,97,0.35,,,0.80,,2013-07-02 05:43:00,
2013-07-02 01:53:00,66.0,65.0,29.95,NW,306,0.0,0.0,97,0.39,,,0.86,,2013-07-02 05:53:00,
2013-07-02 02:34:00,66.0,65.0,29.96,NW,306,0.0,0.0,98,0.30,,,1.07,,2013-07-02 06:34:00,
2013-07-02 02:53:00,66.0,65.0,29.96,NW,306,0.0,0.0,98,0.27,,,1.13,,2013-07-02 06:53:00,
2013-07-02 03:01:00,66.0,65.0,29.96,NW,306,0.0,0.0,98,0.22,,,1.17,,2013-07-02 07:01:00,
2013-07-02 03:22:00,66.0,65.0,29.96,NW,306,0.0,0.0,98,0.13,,,1.19,,2013-07-02 07:22:00,
2013-07-02 03:44:00,66.0,65.0,29.96,NW,306,0.0,1.0,98,0.18,,,1.29,,2013-07-02 07:44:00,
2013-07-02 03:53:00,66.0,65.0,29.96,NW,306,0.0,1.0,98,0.16,,,1.30,,2013-07-02 07:53:00,
2013-07-02 04:02:00,66.0,65.0,29.95,NW,306,0.0,0.0,98,0.16,,,1.33,,2013-07-02 08:02:00,
2013-07-02 04:44:00,66.0,65.0,29.95,NW,306,0.0,0.0,98,0.04,,,1.33,,2013-07-02 08:44:00,
2013-07-02 04:53:00,66.0,65.0,29.95,NW,306,0.0,0.0,98,0.03,,,1.33,,2013-07-02 08:53:00,
2013-07-02 05:52:00,66.0,65.0,29.96,NW,306,0.0,0.0,98,0.01,,,1.34,,2013-07-02 09:52:00,
2013-07-02 06:01:00,66.0,65.0,29.96,NW,306,0.0,0.0,98,0.01,,,1.34,,2013-07-02 10:01:00,
2013-07-02 08:01:00,66.0,65.0,29.99,NNW,338,0.0,0.0,98,0.00,,,1.34,,2013-07-02 12:01:00,
2013-07-02 08:43:00,67.0,66.0,30.01,NNW,338,0.0,0.0,98,0.00,,,1.34,,2013-07-02 12:43:00,
2013-07-02 08:52:00,67.0,66.0,30.01,NNW,338,0.0,0.0,98,0.00,,,1.34,,2013-07-02 12:52:00,
2013-07-02 09:01:00,68.0,67.0,30.01,NNW,338,0.0,0.0,98,0.00,,,1.34,,2013-07-02 13:01:00,
2013-07-02 09:43:00,70.0,69.0,30.02,NNW,329,0.0,0.0,98,0.00,,,1.34,,2013-07-02 13:43:00,
2013-07-02 10:02:00,70.0,69.0,30.02,NNW,329,0.0,0.0,98,0.00,,,1.34,,2013-07-02 14:02:00,
2013-07-02 10:11:00,70.0,69.0,30.02,NNW,329,0.0,1.0,98,0.00,,,1.34,,2013-07-02 14:11:00,
2013-07-02 10:43:00,71.0,70.0,30.03,NW,312,0.0,2.0,98,0.00,,,1.34,,2013-07-02 14:43:00,
2013-07-02 11:33:00,73.0,72.0,30.03,WSW,246,0.0,1.0,96,0.00,,,1.34,,2013-07-02 15:33:00,
2013-07-02 11:53:00,73.0,71.0,30.03,NW,314,0.0,3.0,93,0.00,,,1.34,,2013-07-02 15:53:00,
2013-07-02 12:01:00,75.0,72.0,30.03,West,280,0.0,2.0,89,0.00,,,1.34,,2013-07-02 16:01:00,
2013-07-02 12:43:00,77.0,71.0,30.03,SE,144,0.0,3.0,83,0.00,,,1.34,,2013-07-02 16:43:00,
2013-07-02 14:34:00,80.0,71.0,30.03,North,350,0.0,1.0,73,0.00,,,1.33,,2013-07-02 18:34:00,
2013-07-02 14:53:00,82.0,67.0,30.02,North,355,1.0,4.0,61,0.00,,,1.33,,2013-07-02 18:53:00,
2013-07-02 15:53:00,81.0,71.0,30.01,North,11,0.0,2.0,71,0.00,,,1.33,,2013-07-02 19:53:00,
2013-07-02 16:33:00,81.0,71.0,30.01,SE,138,0.0,2.0,71,0.00,,,1.33,,2013-07-02 20:33:00,
2013-07-02 16:43:00,83.0,72.0,30.01,NW,319,0.0,2.0,69,0.00,,,1.33,,2013-07-02 20:43:00,
2013-07-02 17:44:00,83.0,70.0,30.01,NNW,339,0.0,1.0,65,0.00,,,1.33,,2013-07-02 21:44:00,
2013-07-02 17:52:00,83.0,71.0,30.01,ENE,67,1.0,3.0,68,0.00,,,1.33,,2013-07-02 21:52:00,
2013-07-02 18:43:00,80.0,69.0,30.01,WSW,248,0.0,1.0,70,0.00,,,1.33,,2013-07-02 22:43:00,
2013-07-02 18:53:00,79.0,68.0,30.01,South,184,1.0,7.0,70,0.00,,,1.33,,2013-07-02 22:53:00,
2013-07-02 19:01:00,79.0,70.0,30.01,WSW,241,0.0,2.0,74,0.00,,,1.33,,2013-07-02 23:01:00,
2013-07-02 19:12:00,78.0,67.0,30.01,West,263,1.0,4.0,70,0.00,,,1.33,,2013-07-02 23:12:00,
2013-07-02 19:22:00,78.0,67.0,30.02,West,261,0.0,1.0,70,0.00,,,1.33,,2013-07-02 23:22:00,
2013-07-02 19:33:00,78.0,67.0,30.02,West,261,0.0,2.0,70,0.00,,,1.33,,2013-07-02 23:33:00,
2013-07-02 19:52:00,77.0,69.0,30.02,West,260,0.0,0.0,76,0.00,,,1.33,,2013-07-02 23:52:00,
2013-07-02 20:01:00,76.0,68.0,30.03,West,260,0.0,0.0,76,0.00,,,1.33,,2013-07-03 00:01:00,
2013-07-02 20:33:00,75.0,68.0,30.04,West,260,0.0,0.0,80,0.00,,,1.33,,2013-07-03 00:33:00,
2013-07-02 20:44:00,75.0,68.0,30.04,West,260,0.0,0.0,80,0.00,,,1.33,,2013-07-03 00:44:00,
2013-07-02 20:52:00,74.0,68.0,30.04,West,260,0.0,0.0,81,0.00,,,1.33,,2013-07-03 00:52:00,
2013-07-02 21:01:00,74.0,68.0,30.04,West,260,0.0,0.0,82,0.00,,,1.33,,2013-07-03 01:01:00,
2013-07-02 21:11:00,74.0,69.0,30.05,West,260,0.0,0.0,84,0.00,,,1.33,,2013-07-03 01:11:00,
2013-07-02 21:33:00,73.0,68.0,30.05,West,260,0.0,0.0,83,0.00,,,1.33,,2013-07-03 01:33:00,
2013-07-02 22:39:00,73.0,69.0,30.06,West,260,0.0,1.0,87,0.00,,,1.33,,2013-07-03 02:39:00,
2013-07-02 22:44:00,73.0,69.0,30.07,West,265,0.0,2.0,87,0.00,,,1.33,,2013-07-03 02:44:00,
2013-07-02 22:55:00,73.0,69.0,30.07,West,265,0.0,0.0,87,0.00,,,1.33,,2013-07-03 02:55:00,
2013-07-02 23:05:00,73.0,69.0,30.07,West,265,0.0,0.0,87,0.00,,,1.33,,2013-07-03 03:05:00,